Time;durP1;ratioP1;P1;durP2;ratioP2;P2;SDS_P1;SDS_P2;PMS_P1;PMS_P2;Temp;Humidity;BMP_temperature;BMP_pressure;BME280_temperature;BME280_humidity;BME280_pressure;Samples;Min_cycle;Max_cycle;Signal;HPM_P1;HPM_P2
2022/05/25 00:02:55;;;;;;;10.38;7.65;;;11.20;99.90;;;;;;6244326;28;20045;-71
2022/05/25 00:05:58;;;;;;;9.30;6.85;;;11.20;99.90;;;;;;6239153;28;20097;-71
2022/05/25 00:09:01;;;;;;;13.88;8.23;;;11.20;99.90;;;;;;6249123;28;20160;-71
2022/05/25 00:12:03;;;;;;;11.63;8.15;;;11.20;99.90;;;;;;6243875;28;20060;-71
2022/05/25 00:15:07;;;;;;;11.75;7.88;;;11.20;99.90;;;;;;6242864;28;20176;-71
2022/05/25 00:18:09;;;;;;;;;;;11.20;99.90;;;;;;6248233;28;20045;-71
2022/05/25 00:21:10;;;;;;;10.32;7.63;;;11.20;99.90;;;;;;6245419;28;19999;-71
2022/05/25 00:24:13;;;;;;;11.25;7.70;;;11.10;99.90;;;;;;6227329;28;20138;-71
2022/05/25 00:27:15;;;;;;;9.38;7.65;;;11.10;99.90;;;;;;6240454;28;20046;-70
2022/05/25 00:30:18;;;;;;;12.57;8.10;;;11.10;99.90;;;;;;6223698;28;20123;-71
2022/05/25 00:33:21;;;;;;;12.27;7.50;;;11.00;99.90;;;;;;6232633;28;20077;-72
2022/05/25 00:36:23;;;;;;;8.18;7.32;;;11.00;99.90;;;;;;6238801;28;20075;-71
2022/05/25 00:39:26;;;;;;;8.75;7.85;;;11.00;99.90;;;;;;6238864;28;20108;-71
2022/05/25 00:42:28;;;;;;;;;;;11.00;99.90;;;;;;6238980;28;20119;-70
2022/05/25 00:45:32;;;;;;;10.18;7.97;;;10.90;99.90;;;;;;6231185;28;20060;-72
2022/05/25 00:48:38;;;;;;;9.60;8.00;;;10.90;99.90;;;;;;6242499;28;20129;-71
2022/05/25 00:51:42;;;;;;;10.13;7.65;;;10.90;99.90;;;;;;6234769;28;20175;-71
2022/05/25 00:54:49;;;;;;;10.85;8.20;;;10.90;99.90;;;;;;6223844;28;20496;-71
2022/05/25 00:57:51;;;;;;;10.10;8.02;;;10.80;99.90;;;;;;6228410;28;20132;-70
2022/05/25 01:00:53;;;;;;;13.88;8.90;;;10.80;99.90;;;;;;6246044;28;20136;-71
2022/05/25 01:03:55;;;;;;;9.00;7.18;;;10.80;99.90;;;;;;6242737;28;20049;-71
2022/05/25 01:07:20;;;;;;;11.18;8.70;;;10.80;99.90;;;;;;6240429;28;20045;-71
2022/05/25 01:10:36;;;;;;;9.25;8.43;;;10.80;99.90;;;;;;6244966;28;20041;-71
2022/05/25 01:13:49;;;;;;;9.88;8.10;;;10.80;99.90;;;;;;6242148;28;20048;-71
2022/05/25 01:17:01;;;;;;;10.48;8.00;;;10.80;99.90;;;;;;6246391;28;20187;-71
2022/05/25 01:20:13;;;;;;;9.90;8.57;;;10.70;99.90;;;;;;6236657;28;20143;-69
2022/05/25 01:23:42;;;;;;;9.23;8.27;;;10.70;99.90;;;;;;6228412;28;20617;-69
2022/05/25 01:27:13;;;;;;;10.10;8.70;;;10.70;99.90;;;;;;6224407;28;20103;-69
2022/05/25 01:30:20;;;;;;;9.45;8.50;;;10.70;99.90;;;;;;6237421;28;20124;-69
2022/05/25 01:33:28;;;;;;;11.90;8.98;;;10.70;99.90;;;;;;6241160;28;20099;-70
2022/05/25 01:36:37;;;;;;;10.25;9.20;;;10.70;99.90;;;;;;6241775;28;20182;-70
2022/05/25 01:39:45;;;;;;;12.48;9.60;;;10.70;99.90;;;;;;6235641;28;20055;-70
2022/05/25 01:42:51;;;;;;;12.27;9.55;;;10.60;99.90;;;;;;6236284;28;20049;-70
2022/05/25 01:45:58;;;;;;;9.68;8.68;;;10.60;99.90;;;;;;6242806;28;20049;-69
2022/05/25 01:49:06;;;;;;;13.50;9.35;;;10.60;99.90;;;;;;6231313;28;20362;-69
2022/05/25 01:52:12;;;;;;;9.65;7.78;;;10.60;99.90;;;;;;6222439;28;20048;-70
2022/05/25 01:55:18;;;;;;;12.18;9.60;;;10.50;99.90;;;;;;6222761;28;20042;-70
2022/05/25 01:58:22;;;;;;;13.00;8.10;;;10.60;99.90;;;;;;6227022;28;20536;-70
2022/05/25 02:01:25;;;;;;;12.85;9.23;;;10.50;99.90;;;;;;6225847;28;20215;-70
2022/05/25 02:04:26;;;;;;;10.38;9.32;;;10.50;99.90;;;;;;6235808;28;20139;-70
2022/05/25 02:07:41;;;;;;;13.43;10.13;;;10.50;99.90;;;;;;6236283;28;20054;-70
2022/05/25 02:10:54;;;;;;;11.57;9.88;;;10.50;99.90;;;;;;6221798;28;21806;-70
2022/05/25 02:14:02;;;;;;;11.55;9.93;;;10.50;99.90;;;;;;6239877;28;20514;-70
2022/05/25 02:17:17;;;;;;;11.35;9.93;;;10.40;99.90;;;;;;6220864;28;20507;-70
2022/05/25 02:20:25;;;;;;;11.30;9.20;;;10.40;99.90;;;;;;6241960;28;20049;-69
2022/05/25 02:23:32;;;;;;;10.60;9.48;;;10.30;99.90;;;;;;6239855;28;20128;-70
2022/05/25 02:26:40;;;;;;;11.43;9.32;;;10.20;99.90;;;;;;6237260;28;20050;-70
2022/05/25 02:29:45;;;;;;;14.80;11.48;;;10.20;99.90;;;;;;6225124;28;20045;-70
2022/05/25 02:32:53;;;;;;;11.05;9.95;;;10.20;99.90;;;;;;6234341;28;20551;-69
2022/05/25 02:35:56;;;;;;;11.52;10.32;;;10.20;99.90;;;;;;6239448;28;20525;-69
2022/05/25 02:38:58;;;;;;;11.35;8.07;;;10.10;99.90;;;;;;6219858;28;20046;-70
2022/05/25 02:42:00;;;;;;;12.00;10.80;;;10.00;99.90;;;;;;6235306;28;20049;-69
2022/05/25 02:45:02;;;;;;;12.20;10.98;;;10.00;99.90;;;;;;6244680;28;20045;-70
2022/05/25 02:48:07;;;;;;;12.85;9.70;;;10.00;99.90;;;;;;6225913;28;20053;-70
2022/05/25 02:51:09;;;;;;;18.25;12.73;;;9.90;99.90;;;;;;6235798;28;20045;-70
2022/05/25 02:54:11;;;;;;;13.18;11.57;;;9.90;99.90;;;;;;6245056;28;20049;-69
2022/05/25 02:57:13;;;;;;;13.20;11.60;;;9.80;99.90;;;;;;6241294;28;20041;-70
2022/05/25 03:00:16;;;;;;;15.30;12.95;;;9.80;99.90;;;;;;6245541;28;20108;-70
2022/05/25 03:03:19;;;;;;;17.15;14.88;;;9.80;99.90;;;;;;6242679;28;20132;-69
2022/05/25 03:06:21;;;;;;;16.20;13.63;;;9.70;99.90;;;;;;6228068;28;20149;-70
2022/05/25 03:09:23;;;;;;;16.30;14.07;;;9.70;99.90;;;;;;6222054;28;20192;-70
2022/05/25 03:12:25;;;;;;;15.52;13.65;;;9.80;99.90;;;;;;6239215;28;20139;-70
2022/05/25 03:15:27;;;;;;;16.35;14.65;;;9.80;99.90;;;;;;6247434;28;20073;-70
2022/05/25 03:18:30;;;;;;;15.63;13.23;;;9.80;99.90;;;;;;6241041;28;20132;-71
2022/05/25 03:21:32;;;;;;;;;;;9.80;99.90;;;;;;6242449;28;20075;-69
2022/05/25 03:24:34;;;;;;;14.88;13.38;;;9.80;99.90;;;;;;6248705;28;20019;-69
2022/05/25 03:27:36;;;;;;;15.32;12.25;;;9.80;99.90;;;;;;6238100;28;20144;-69
2022/05/25 03:30:38;;;;;;;15.80;13.38;;;9.80;99.90;;;;;;6225208;28;20050;-69
2022/05/25 03:33:41;;;;;;;16.50;13.05;;;9.80;99.90;;;;;;6230017;28;20057;-69
2022/05/25 03:36:43;;;;;;;13.07;11.77;;;9.80;99.90;;;;;;6225207;28;20210;-70
2022/05/25 03:39:45;;;;;;;14.85;12.80;;;9.90;99.90;;;;;;6231672;28;20140;-69
2022/05/25 03:42:48;;;;;;;13.02;11.23;;;9.90;99.90;;;;;;6226263;28;20042;-69
2022/05/25 03:45:50;;;;;;;16.00;12.57;;;9.90;99.90;;;;;;6231232;28;20049;-68
2022/05/25 03:48:53;;;;;;;14.93;13.07;;;9.90;99.90;;;;;;6228242;28;20106;-70
2022/05/25 03:51:55;;;;;;;15.88;13.05;;;9.90;99.90;;;;;;6232504;28;20081;-70
2022/05/25 03:54:57;;;;;;;16.85;13.13;;;9.90;99.90;;;;;;6224690;28;20069;-71
2022/05/25 03:57:59;;;;;;;13.48;12.02;;;9.90;99.90;;;;;;6232985;28;20565;-71
2022/05/25 04:01:01;;;;;;;11.63;10.20;;;10.00;99.90;;;;;;6236305;28;20128;-71
2022/05/25 04:04:04;;;;;;;13.05;11.18;;;10.00;99.90;;;;;;6247318;28;20127;-70
2022/05/25 04:07:06;;;;;;;14.77;11.27;;;10.10;99.90;;;;;;6243609;28;20054;-70
2022/05/25 04:10:12;;;;;;;14.98;13.15;;;10.10;99.90;;;;;;6231067;28;20457;-71
2022/05/25 04:13:16;;;;;;;15.25;13.43;;;10.10;99.90;;;;;;6236968;28;20053;-71
2022/05/25 04:16:18;;;;;;;;;;;10.10;99.90;;;;;;6224918;28;20046;-71
2022/05/25 04:19:21;;;;;;;14.52;13.07;;;10.10;99.90;;;;;;6238590;28;19929;-71
2022/05/25 04:22:23;;;;;;;15.75;14.10;;;10.20;99.90;;;;;;6224147;28;20052;-69
2022/05/25 04:25:26;;;;;;;13.55;11.57;;;10.20;99.90;;;;;;6224493;28;20049;-70
2022/05/25 04:28:28;;;;;;;15.95;13.02;;;10.20;99.90;;;;;;6224971;28;20057;-70
2022/05/25 04:31:30;;;;;;;16.50;12.95;;;10.30;99.90;;;;;;6234349;28;20137;-70
2022/05/25 04:34:33;;;;;;;15.32;13.23;;;10.30;99.90;;;;;;6224509;28;20151;-69
2022/05/25 04:37:52;;;;;;;14.60;12.65;;;10.40;99.90;;;;;;6225680;28;20071;-70
2022/05/25 04:40:54;;;;;;;16.55;13.57;;;10.50;99.90;;;;;;6242678;28;20069;-70
2022/05/25 04:43:55;;;;;;;18.15;13.90;;;10.50;99.90;;;;;;6241555;28;20042;-70
2022/05/25 04:46:57;;;;;;;14.55;12.82;;;10.70;99.90;;;;;;6235238;28;20142;-70
2022/05/25 04:50:01;;;;;;;15.20;12.55;;;10.70;99.90;;;;;;6241735;28;20190;-70
2022/05/25 04:53:03;;;;;;;9.45;7.80;;;10.70;99.90;;;;;;6225492;28;20044;-70
2022/05/25 04:59:25;;;;;;;12.02;9.25;;;11.10;99.90;;;;;;6222992;28;20046;-70
2022/05/25 05:02:27;;;;;;;14.65;11.02;;;11.30;99.90;;;;;;6233250;28;20041;-70
2022/05/25 05:05:30;;;;;;;12.13;10.93;;;11.30;99.90;;;;;;6238015;28;20408;-70
2022/05/25 05:08:33;;;;;;;13.82;11.75;;;11.40;99.90;;;;;;6227327;28;20103;-70
2022/05/25 05:11:36;;;;;;;10.77;8.30;;;11.60;99.90;;;;;;6231871;28;20168;-70
2022/05/25 05:14:38;;;;;;;13.93;12.43;;;11.70;99.90;;;;;;6246593;28;20057;-70
2022/05/25 05:17:40;;;;;;;14.73;11.23;;;11.90;99.90;;;;;;6232454;28;20188;-71
2022/05/25 05:20:43;;;;;;;12.18;10.95;;;11.90;99.90;;;;;;6245010;28;20522;-70
2022/05/25 05:23:45;;;;;;;10.65;8.20;;;12.00;99.90;;;;;;6222766;28;20152;-70
2022/05/25 05:26:47;;;;;;;13.52;9.60;;;12.20;99.90;;;;;;6220778;28;20135;-69
2022/05/25 05:29:49;;;;;;;13.00;8.68;;;12.20;99.90;;;;;;6223982;28;20053;-70
2022/05/25 05:32:51;;;;;;;13.88;11.05;;;12.20;99.90;;;;;;6234125;28;20056;-70
2022/05/25 05:36:00;;;;;;;10.98;9.63;;;12.20;99.90;;;;;;6235229;28;20638;-70
2022/05/25 05:39:05;;;;;;;10.93;9.70;;;12.30;99.90;;;;;;6228670;28;20042;-70
2022/05/25 05:42:10;;;;;;;11.45;10.20;;;12.30;99.90;;;;;;6221888;28;20091;-69
2022/05/25 05:45:15;;;;;;;10.10;9.07;;;12.30;99.90;;;;;;6222427;28;20435;-69
2022/05/25 05:48:21;;;;;;;10.80;9.70;;;12.50;99.90;;;;;;6222868;28;20068;-69
2022/05/25 05:51:24;;;;;;;15.10;11.23;;;12.60;99.90;;;;;;6221864;28;20061;-69
2022/05/25 05:54:26;;;;;;;13.10;11.52;;;12.60;99.90;;;;;;6223294;28;20135;-69
2022/05/25 05:57:28;;;;;;;16.80;12.75;;;12.70;99.90;;;;;;6222313;28;20061;-69
2022/05/25 06:00:30;;;;;;;12.57;10.57;;;12.70;99.90;;;;;;6238233;28;20049;-69
2022/05/25 06:03:32;;;;;;;14.57;10.93;;;12.70;99.90;;;;;;6220279;28;20667;-63
2022/05/25 06:06:35;;;;;;;13.57;10.52;;;12.90;99.90;;;;;;6221641;28;20049;-66
2022/05/25 06:09:37;;;;;;;14.65;11.27;;;13.20;99.90;;;;;;6222955;28;20081;-68
2022/05/25 06:12:39;;;;;;;779.15;80.50;;;13.40;99.90;;;;;;6222012;28;20141;-69
2022/05/25 06:22:27;;;;;;;13.65;8.55;;;13.50;99.90;;;;;;6222693;28;20053;-67
2022/05/25 06:25:30;;;;;;;8.13;4.47;;;13.60;99.90;;;;;;6225117;28;20049;-68
2022/05/25 06:28:32;;;;;;;13.55;11.02;;;13.70;99.90;;;;;;6236448;28;20136;-66
2022/05/25 06:31:34;;;;;;;10.60;7.25;;;14.00;99.90;;;;;;6229961;28;20049;-67
2022/05/25 06:34:37;;;;;;;11.18;7.60;;;14.10;99.90;;;;;;6236445;28;20096;-67
2022/05/25 06:37:40;;;;;;;;;;;14.20;99.90;;;;;;6222373;28;20108;-67
2022/05/25 06:40:42;;;;;;;7.33;5.13;;;14.40;99.90;;;;;;6222586;28;19987;-68
2022/05/25 06:43:45;;;;;;;11.30;8.45;;;14.50;99.90;;;;;;6239558;28;20520;-68
2022/05/25 06:46:48;;;;;;;12.15;8.68;;;14.60;99.90;;;;;;6239634;28;20175;-67
2022/05/25 06:49:53;;;;;;;5.20;3.13;;;14.70;99.90;;;;;;6235603;28;20045;-69
2022/05/25 06:52:56;;;;;;;11.43;7.47;;;14.80;99.90;;;;;;6238210;28;20412;-68
2022/05/25 06:55:58;;;;;;;12.02;8.77;;;14.90;99.90;;;;;;6229978;28;20076;-68
2022/05/25 06:59:00;;;;;;;10.45;7.95;;;15.20;99.90;;;;;;6225520;28;20133;-68
2022/05/25 07:02:02;;;;;;;9.93;8.90;;;15.20;99.90;;;;;;6246308;28;20045;-68
2022/05/25 07:05:05;;;;;;;7.90;5.85;;;15.40;99.90;;;;;;6237593;28;20061;-69
2022/05/25 07:08:08;;;;;;;8.03;4.13;;;15.40;99.90;;;;;;6232968;28;20133;-68
2022/05/25 07:11:12;;;;;;;10.38;7.80;;;15.60;99.90;;;;;;6227520;28;20076;-68
2022/05/25 07:14:14;;;;;;;12.30;6.78;;;16.10;99.90;;;;;;6228858;28;20041;-77
2022/05/25 07:17:16;;;;;;;8.93;7.40;;;17.00;99.90;;;;;;6248883;28;20069;-67
2022/05/25 07:20:18;;;;;;;4.72;2.80;;;17.70;99.90;;;;;;6245640;28;20099;-67
2022/05/25 07:23:22;;;;;;;6.97;4.05;;;18.00;99.90;;;;;;6226125;28;20131;-67
2022/05/25 07:26:25;;;;;;;7.72;3.90;;;18.50;99.90;;;;;;6233607;28;20418;-67
2022/05/25 07:29:26;;;;;;;7.90;5.43;;;18.80;99.90;;;;;;6225430;28;20056;-67
2022/05/25 07:32:29;;;;;;;9.02;6.50;;;19.30;99.90;;;;;;6230819;28;20049;-69
2022/05/25 07:35:31;;;;;;;10.57;6.20;;;19.60;99.90;;;;;;6242941;28;20050;-67
2022/05/25 07:38:34;;;;;;;8.85;5.47;;;19.90;99.90;;;;;;6243316;28;20171;-67
2022/05/25 07:41:40;;;;;;;7.80;6.03;;;20.00;99.90;;;;;;6236994;28;20470;-67
2022/05/25 07:44:45;;;;;;;9.25;5.80;;;20.10;99.90;;;;;;6224938;28;20132;-68
2022/05/25 07:47:49;;;;;;;4.50;3.25;;;20.30;99.90;;;;;;6247739;28;20081;-68
2022/05/25 07:50:50;;;;;;;6.72;2.85;;;20.40;99.90;;;;;;6248166;28;20098;-67
2022/05/25 07:53:58;;;;;;;7.47;4.35;;;20.40;99.90;;;;;;6245615;28;20045;-67
2022/05/25 07:57:00;;;;;;;6.15;4.57;;;20.50;99.90;;;;;;6243980;28;20176;-67
2022/05/25 08:00:03;;;;;;;6.10;4.28;;;20.40;99.90;;;;;;6249993;28;20049;-68
2022/05/25 08:06:24;;;;;;;6.35;4.28;;;20.00;99.90;;;;;;6234573;28;20057;-67
2022/05/25 08:09:30;;;;;;;3.65;2.35;;;20.20;99.90;;;;;;6249580;28;20184;-67
2022/05/25 08:12:33;;;;;;;6.88;3.83;;;20.40;99.30;;;;;;6247332;28;20057;-67
2022/05/25 08:15:36;;;;;;;5.00;4.20;;;20.40;99.60;;;;;;6236488;28;20153;-67
2022/05/25 08:18:38;;;;;;;9.40;4.60;;;20.30;98.80;;;;;;6240336;28;20045;-67
2022/05/25 08:21:40;;;;;;;6.45;4.45;;;20.20;99.20;;;;;;6224750;28;20041;-67
2022/05/25 08:24:43;;;;;;;5.00;4.28;;;20.40;98.70;;;;;;6224245;28;20042;-67
2022/05/25 08:27:45;;;;;;;;;;;20.40;98.90;;;;;;6245985;28;20091;-69
2022/05/25 08:30:47;;;;;;;2.72;1.42;;;20.50;97.80;;;;;;6227496;28;19921;-67
2022/05/25 08:33:49;;;;;;;6.45;3.97;;;20.40;99.50;;;;;;6223811;28;20524;-67
2022/05/25 08:36:51;;;;;;;8.07;3.65;;;20.50;98.60;;;;;;6241295;28;20144;-68
2022/05/25 08:39:54;;;;;;;3.65;2.40;;;20.60;97.90;;;;;;6229639;28;20638;-67
2022/05/25 08:43:00;;;;;;;6.15;3.17;;;20.70;98.20;;;;;;6223646;28;20168;-67
2022/05/25 08:46:05;;;;;;;4.18;2.30;;;20.70;98.30;;;;;;6232758;28;20136;-67
2022/05/25 08:49:12;;;;;;;6.60;3.55;;;20.60;98.20;;;;;;6236983;28;20158;-67
2022/05/25 08:52:24;;;;;;;5.57;2.53;;;20.40;97.10;;;;;;6229762;28;20073;-67
2022/05/25 08:55:55;;;;;;;4.75;2.97;;;20.30;97.50;;;;;;6245526;28;20525;-66
2022/05/25 08:59:03;;;;;;;3.15;2.20;;;20.10;97.50;;;;;;6235361;28;20167;-66
2022/05/25 09:02:13;;;;;;;3.03;2.50;;;20.10;98.20;;;;;;6228807;28;20045;-67
2022/05/25 09:05:20;;;;;;;3.30;2.13;;;19.90;96.70;;;;;;6242768;28;20052;-67
2022/05/25 09:08:33;;;;;;;3.38;1.88;;;19.80;97.50;;;;;;6221324;28;20185;-67
2022/05/25 09:11:42;;;;;;;5.85;3.33;;;19.80;98.30;;;;;;6241700;28;20171;-67
2022/05/25 09:14:48;;;;;;;3.92;2.63;;;19.80;97.70;;;;;;6236348;28;20123;-68
2022/05/25 09:17:55;;;;;;;4.97;3.35;;;19.90;97.80;;;;;;6227466;28;20041;-68
2022/05/25 09:20:57;;;;;;;4.32;2.85;;;20.00;97.10;;;;;;6225275;28;20042;-68
2022/05/25 09:24:04;;;;;;;4.38;3.05;;;20.00;97.70;;;;;;6223286;28;20085;-68
2022/05/25 09:27:11;;;;;;;1.92;1.45;;;19.90;95.70;;;;;;6229006;28;20046;-69
2022/05/25 09:30:14;;;;;;;4.63;3.00;;;19.90;96.70;;;;;;6224333;28;20056;-70
2022/05/25 09:33:21;;;;;;;4.28;2.50;;;19.90;96.00;;;;;;6246558;28;20079;-68
2022/05/25 09:36:28;;;;;;;3.20;2.00;;;19.90;96.80;;;;;;6238855;28;20048;-69
2022/05/25 09:39:32;;;;;;;2.97;1.88;;;19.90;96.30;;;;;;6243321;28;20045;-68
2022/05/25 09:42:37;;;;;;;2.08;1.20;;;19.90;95.70;;;;;;6223415;28;20061;-67
2022/05/25 09:45:44;;;;;;;3.58;1.15;;;19.90;96.80;;;;;;6227940;28;20056;-69
2022/05/25 09:48:50;;;;;;;3.38;1.52;;;20.00;96.80;;;;;;6221519;28;20655;-69
2022/05/25 09:51:53;;;;;;;2.15;1.15;;;20.00;95.50;;;;;;6222245;28;20046;-68
2022/05/25 09:54:59;;;;;;;3.00;1.35;;;20.10;96.10;;;;;;6222349;28;20136;-68
2022/05/25 09:58:07;;;;;;;3.05;1.30;;;20.10;96.00;;;;;;6223917;28;20132;-68
2022/05/25 10:01:23;;;;;;;2.53;1.85;;;20.10;96.60;;;;;;6221645;28;20078;-67
2022/05/25 10:04:51;;;;;;;3.60;1.95;;;20.10;94.40;;;;;;6222097;28;20136;-69
2022/05/25 10:07:55;;;;;;;3.80;2.35;;;20.20;95.30;;;;;;6225117;28;20054;-68
2022/05/25 10:11:00;;;;;;;3.63;1.73;;;20.20;95.00;;;;;;6236231;28;20482;-68
2022/05/25 10:14:19;;;;;;;3.28;2.08;;;20.20;95.20;;;;;;6241877;28;20049;-71
2022/05/25 10:17:33;;;;;;;3.67;1.60;;;20.10;94.40;;;;;;6232057;28;20080;-69
2022/05/25 10:20:47;;;;;;;3.70;1.80;;;20.10;95.10;;;;;;6239075;28;20513;-68
2022/05/25 10:23:48;;;;;;;1.27;0.82;;;20.10;95.10;;;;;;6225484;28;20172;-70
2022/05/25 10:26:53;;;;;;;4.60;2.08;;;20.20;95.80;;;;;;6227918;28;20042;-70
2022/05/25 10:36:53;;;;;;;3.38;1.30;;;19.90;95.90;;;;;;6258161;28;20050;-68
2022/05/25 10:40:03;;;;;;;2.55;1.65;;;20.00;95.80;;;;;;6225209;28;20592;-68
2022/05/25 10:43:05;;;;;;;2.05;1.05;;;20.10;95.30;;;;;;6225970;28;20052;-68
2022/05/25 10:46:08;;;;;;;3.97;1.73;;;20.10;95.20;;;;;;6250554;28;20465;-69
2022/05/25 10:49:19;;;;;;;1.75;1.02;;;20.10;95.20;;;;;;6240455;28;20052;-69
2022/05/25 10:52:29;;;;;;;3.55;1.67;;;20.20;95.50;;;;;;6238723;28;20066;-70
2022/05/25 10:55:35;;;;;;;2.70;1.42;;;20.30;95.10;;;;;;6231557;28;20129;-68
2022/05/25 10:58:56;;;;;;;4.57;2.30;;;20.30;94.70;;;;;;6225406;28;20054;-68
2022/05/25 11:02:17;;;;;;;3.33;1.90;;;20.20;95.00;;;;;;6230825;28;20053;-70
2022/05/25 11:05:32;;;;;;;6.05;3.10;;;20.00;95.10;;;;;;6232673;28;20501;-67
2022/05/25 11:08:48;;;;;;;5.03;3.70;;;19.70;94.70;;;;;;6260532;28;20084;-69
2022/05/25 11:11:57;;;;;;;7.13;5.22;;;19.40;94.70;;;;;;6189303;28;20130;-68
2022/05/25 11:15:10;;;;;;;23.25;14.93;;;19.10;95.60;;;;;;6257779;28;20176;-68
2022/05/25 11:18:27;;;;;;;25.10;18.88;;;19.10;96.40;;;;;;6255977;28;20049;-67
2022/05/25 11:21:41;;;;;;;34.88;26.02;;;19.20;96.40;;;;;;6271148;28;20045;-67
2022/05/25 11:24:56;;;;;;;17.95;13.68;;;19.50;95.60;;;;;;6261155;28;20075;-68
2022/05/25 11:28:22;;;;;;;15.48;11.23;;;19.80;95.60;;;;;;6267293;28;20119;-68
2022/05/25 11:31:32;;;;;;;13.43;7.85;;;20.20;95.20;;;;;;6249321;28;20120;-67
2022/05/25 11:34:54;;;;;;;9.15;6.78;;;20.40;94.60;;;;;;6252694;28;20049;-67
2022/05/25 11:38:11;;;;;;;10.90;7.85;;;20.40;93.80;;;;;;6272751;28;20177;-68
2022/05/25 11:41:24;;;;;;;11.43;8.23;;;20.30;94.70;;;;;;6273175;28;20049;-67
2022/05/25 11:44:52;;;;;;;26.90;21.75;;;20.20;94.90;;;;;;6271079;28;20176;-68
2022/05/25 11:48:12;;;;;;;7.18;4.85;;;20.30;95.10;;;;;;6249473;28;20053;-68
2022/05/25 11:51:22;;;;;;;10.13;5.55;;;20.40;93.50;;;;;;6259356;28;20214;-67
2022/05/25 11:54:38;;;;;;;21.83;15.35;;;20.20;93.60;;;;;;6263268;28;20041;-67
2022/05/25 11:57:46;;;;;;;7.72;3.83;;;20.20;95.00;;;;;;6252776;28;20067;-67
2022/05/25 12:00:58;;;;;;;11.10;7.53;;;20.30;93.80;;;;;;6271867;28;20139;-67
2022/05/25 12:04:30;;;;;;;23.70;16.08;;;20.30;94.00;;;;;;6270507;28;20041;-67
2022/05/25 12:07:45;;;;;;;26.08;18.13;;;20.40;94.30;;;;;;6256981;28;20076;-67
2022/05/25 12:10:56;;;;;;;9.20;6.55;;;20.60;94.10;;;;;;6254442;28;20052;-69
2022/05/25 12:14:07;;;;;;;15.00;11.05;;;20.60;92.40;;;;;;6259566;28;20051;-68
2022/05/25 12:17:17;;;;;;;16.17;12.25;;;20.60;91.90;;;;;;6265827;28;20184;-67
2022/05/25 12:20:28;;;;;;;10.15;5.18;;;20.50;91.90;;;;;;6264478;28;20136;-67
2022/05/25 12:23:34;;;;;;;12.02;8.77;;;20.40;92.20;;;;;;6248446;28;20406;-67
2022/05/25 12:26:39;;;;;;;8.10;3.63;;;20.30;92.60;;;;;;6249565;28;20056;-67
2022/05/25 12:29:44;;;;;;;15.02;10.10;;;20.20;92.20;;;;;;6251212;28;20624;-66
2022/05/25 12:32:46;;;;;;;4.63;3.47;;;20.00;93.40;;;;;;6254139;28;20160;-68
2022/05/25 12:35:49;;;;;;;10.13;6.38;;;19.80;93.00;;;;;;6248884;28;20130;-69
2022/05/25 12:38:53;;;;;;;7.30;5.20;;;19.90;93.60;;;;;;6249030;28;20487;-69
2022/05/25 12:42:39;;;;;;;5.85;4.63;;;19.60;94.20;;;;;;6257349;28;20033;-69
2022/05/25 12:49:13;;;;;;;6.82;3.30;;;19.20;95.00;;;;;;6270167;28;20049;-68
2022/05/25 12:52:43;;;;;;;8.27;4.13;;;18.90;94.80;;;;;;6253630;28;20056;-68
2022/05/25 12:55:54;;;;;;;3.63;2.88;;;18.90;95.40;;;;;;6248075;28;20060;-68
2022/05/25 12:59:07;;;;;;;5.53;3.42;;;19.00;94.80;;;;;;6264911;28;20060;-68
2022/05/25 13:02:27;;;;;;;4.43;2.95;;;19.30;95.00;;;;;;6253713;28;20047;-68
2022/05/25 13:05:52;;;;;;;4.32;2.78;;;19.50;94.60;;;;;;6249002;28;20412;-69
2022/05/25 13:09:04;;;;;;;3.92;2.58;;;19.60;93.50;;;;;;6247649;28;20065;-68
2022/05/25 13:12:47;;;;;;;4.07;2.92;;;19.60;94.00;;;;;;6247621;28;20056;-69
2022/05/25 13:15:50;;;;;;;6.13;2.88;;;19.60;94.40;;;;;;6241524;28;20052;-66
2022/05/25 13:18:57;;;;;;;4.50;3.08;;;19.70;94.40;;;;;;6247842;28;20041;-68
2022/05/25 13:22:27;;;;;;;4.93;2.60;;;19.80;94.10;;;;;;6266548;28;20071;-68
2022/05/25 13:25:35;;;;;;;4.55;2.90;;;19.90;94.00;;;;;;6241854;28;20102;-67
2022/05/25 13:28:47;;;;;;;5.47;3.20;;;19.90;94.60;;;;;;6247382;28;20099;-67
2022/05/25 13:31:56;;;;;;;5.28;2.70;;;20.00;94.40;;;;;;6266255;28;20044;-68
2022/05/25 13:35:31;;;;;;;4.68;2.30;;;20.10;94.30;;;;;;6265489;28;20091;-69
2022/05/25 13:38:39;;;;;;;7.07;2.88;;;20.20;94.30;;;;;;6265267;28;20072;-68
2022/05/25 13:41:45;;;;;;;4.03;2.70;;;20.30;94.20;;;;;;6268258;28;20528;-69
2022/05/25 13:44:49;;;;;;;7.13;3.03;;;20.30;94.30;;;;;;6262562;28;20044;-68
2022/05/25 13:47:54;;;;;;;5.32;1.90;;;20.10;94.70;;;;;;6270886;28;20049;-69
2022/05/25 13:50:58;;;;;;;5.25;1.55;;;19.90;94.80;;;;;;6267141;28;20053;-67
2022/05/25 13:54:00;;;;;;;4.43;2.00;;;19.90;95.00;;;;;;6251960;28;20036;-69
2022/05/25 13:57:02;;;;;;;5.78;1.80;;;20.00;95.50;;;;;;6271756;28;20052;-68
2022/05/25 14:00:20;;;;;;;5.72;1.55;;;20.10;95.20;;;;;;6258485;28;20180;-70
2022/05/25 14:03:28;;;;;;;3.85;1.17;;;20.20;93.60;;;;;;6247308;28;20044;-69
2022/05/25 14:06:32;;;;;;;4.80;1.20;;;20.20;93.60;;;;;;6256339;28;20065;-68
2022/05/25 14:12:54;;;;;;;6.80;1.45;;;20.00;93.80;;;;;;6256687;28;20516;-68
2022/05/25 14:16:02;;;;;;;3.50;0.82;;;19.90;93.70;;;;;;6263372;28;20095;-69
2022/05/25 14:19:06;;;;;;;2.95;0.90;;;19.80;93.80;;;;;;6266470;28;20045;-68
2022/05/25 14:22:09;;;;;;;2.83;0.90;;;19.90;93.10;;;;;;6253705;28;20056;-70
2022/05/25 14:25:13;;;;;;;;;;;19.90;92.20;;;;;;6261887;28;20560;-69
2022/05/25 14:28:14;;;;;;;2.90;0.60;;;19.90;93.00;;;;;;6249855;28;20402;-69
2022/05/25 14:31:21;;;;;;;3.97;0.80;;;19.80;92.20;;;;;;6244232;28;20636;-69
2022/05/25 14:34:27;;;;;;;3.33;0.68;;;19.70;92.00;;;;;;6254810;28;20060;-70
2022/05/25 14:37:32;;;;;;;5.07;0.80;;;19.80;91.80;;;;;;6254368;28;20064;-69
2022/05/25 14:40:45;;;;;;;2.13;0.70;;;19.70;92.10;;;;;;6253222;28;20098;-69
2022/05/25 14:43:48;;;;;;;2.37;0.70;;;19.90;92.80;;;;;;6257615;28;20045;-68
2022/05/25 14:46:50;;;;;;;3.27;0.70;;;20.00;92.50;;;;;;6255517;28;20486;-69
2022/05/25 14:49:57;;;;;;;5.07;0.73;;;20.00;92.50;;;;;;6261140;28;20532;-69
2022/05/25 14:53:02;;;;;;;4.05;0.77;;;20.00;92.20;;;;;;6262344;28;20073;-68
2022/05/25 14:56:08;;;;;;;2.83;0.70;;;19.90;92.70;;;;;;6256118;28;20107;-67
2022/05/25 14:59:10;;;;;;;7.88;0.88;;;19.90;92.30;;;;;;6254433;28;20095;-68
2022/05/25 15:02:25;;;;;;;7.90;1.00;;;19.80;92.30;;;;;;6257502;28;20045;-65
2022/05/25 15:05:40;;;;;;;12.65;1.02;;;19.80;92.20;;;;;;6243919;28;20084;-67
2022/05/25 15:08:45;;;;;;;6.32;0.60;;;19.80;93.50;;;;;;6258117;28;20123;-67
2022/05/25 15:11:47;;;;;;;5.30;0.63;;;20.00;93.20;;;;;;6271010;28;20107;-67
2022/05/25 15:18:31;;;;;;;3.50;0.82;;;20.20;92.60;;;;;;6255617;28;20053;-67
2022/05/25 15:21:35;;;;;;;4.18;0.60;;;20.20;92.90;;;;;;6259556;28;20054;-68
2022/05/25 15:24:37;;;;;;;4.53;0.57;;;20.20;92.70;;;;;;6264522;28;20059;-67
2022/05/25 15:27:41;;;;;;;3.78;0.70;;;20.30;92.60;;;;;;6247708;28;20049;-69
2022/05/25 15:30:45;;;;;;;3.35;0.60;;;20.30;92.80;;;;;;6262475;28;20126;-71
2022/05/25 15:33:48;;;;;;;2.55;0.70;;;20.30;92.50;;;;;;6267353;28;20045;-66
2022/05/25 15:36:52;;;;;;;1.95;0.70;;;20.30;93.00;;;;;;6248295;28;20077;-70
2022/05/25 15:39:57;;;;;;;2.28;0.50;;;20.30;92.10;;;;;;6266350;28;20382;-70
2022/05/25 15:42:59;;;;;;;4.72;1.30;;;20.30;92.40;;;;;;6249958;28;20527;-70
2022/05/25 15:46:06;;;;;;;4.22;0.60;;;20.30;92.20;;;;;;6267285;28;20132;-71
2022/05/25 15:49:11;;;;;;;3.65;0.60;;;20.30;92.30;;;;;;6261642;28;20046;-71
2022/05/25 15:52:15;;;;;;;2.88;0.60;;;20.20;92.70;;;;;;6260813;28;20052;-76
2022/05/25 15:55:18;;;;;;;5.18;1.00;;;20.20;92.70;;;;;;6260466;28;20045;-68
2022/05/25 15:58:21;;;;;;;3.70;0.60;;;20.10;92.40;;;;;;6260699;28;20050;-66
2022/05/25 16:01:24;;;;;;;7.30;1.10;;;20.10;92.70;;;;;;6265535;28;20135;-67
2022/05/25 16:04:31;;;;;;;2.47;0.65;;;20.00;92.70;;;;;;6260764;28;20145;-66
2022/05/25 16:10:55;;;;;;;3.90;0.60;;;20.00;92.60;;;;;;6260326;28;20127;-66
2022/05/25 16:13:57;;;;;;;4.97;0.70;;;20.00;92.40;;;;;;6263748;28;20175;-66
2022/05/25 16:16:59;;;;;;;6.10;1.02;;;20.00;92.50;;;;;;6257119;28;20107;-65
2022/05/25 16:20:01;;;;;;;4.47;0.95;;;19.90;92.60;;;;;;6268058;28;20087;-67
2022/05/25 16:23:05;;;;;;;4.90;0.93;;;19.80;92.90;;;;;;6266458;28;20408;-66
2022/05/25 16:26:07;;;;;;;4.00;0.70;;;19.70;92.70;;;;;;6253146;28;20126;-67
2022/05/25 16:29:10;;;;;;;5.55;0.73;;;19.80;93.20;;;;;;6258022;28;20131;-66
2022/05/25 16:32:14;;;;;;;3.97;1.00;;;19.70;93.10;;;;;;6254463;28;20069;-67
2022/05/25 16:35:19;;;;;;;3.05;0.98;;;19.70;93.00;;;;;;6261310;28;20046;-66
2022/05/25 16:38:22;;;;;;;5.68;0.95;;;19.60;93.00;;;;;;6256606;28;20501;-66
2022/05/25 16:41:29;;;;;;;4.63;0.90;;;19.50;93.50;;;;;;6256684;28;20107;-66